Time;durP1;ratioP1;P1;durP2;ratioP2;P2;SDS_P1;SDS_P2;PMS_P1;PMS_P2;Temp;Humidity;BMP_temperature;BMP_pressure;BME280_temperature;BME280_humidity;BME280_pressure;Samples;Min_cycle;Max_cycle;Signal;HPM_P1;HPM_P2
2022/05/10 15:35:31;;;;;;;5.88;3.88;;;;;;;;;;6026701;22;4307002;-62
2022/05/10 15:37:57;;;;;;;5.15;3.35;;;;;;;;;;6211866;23;20014;-64
2022/05/10 15:40:23;;;;;;;4.32;3.08;;;;;;;;;;6210590;23;20005;-64
2022/05/10 15:42:50;;;;;;;4.13;3.13;;;;;;;;;;6212592;23;20004;-63
2022/05/10 15:45:16;;;;;;;4.93;3.33;;;;;;;;;;6211451;23;20085;-63
2022/05/10 15:47:44;;;;;;;4.97;3.00;;;;;;;;;;6212957;23;20434;-62
2022/05/10 15:50:20;;;;;;;12.60;3.13;;;;;;;;;;6208108;23;20398;-63
2022/05/10 15:52:47;;;;;;;3.78;2.67;;;;;;;;;;6209812;23;20007;-62
2022/05/10 15:55:13;;;;;;;4.38;3.50;;;;;;;;;;6208936;23;20336;-62
2022/05/10 15:57:40;;;;;;;6.53;3.35;;;;;;;;;;6210195;23;20004;-62
2022/05/10 16:00:08;;;;;;;5.45;3.17;;;;;;;;;;6207355;23;20330;-62
2022/05/10 16:02:35;;;;;;;5.13;3.88;;;;;;;;;;6209580;23;20016;-63
2022/05/10 16:05:01;;;;;;;5.68;3.30;;;;;;;;;;6210729;23;20004;-63
2022/05/10 16:07:27;;;;;;;6.03;3.38;;;;;;;;;;6210309;23;20001;-63
2022/05/10 16:09:53;;;;;;;5.70;3.60;;;;;;;;;;6210587;23;20083;-62
2022/05/10 16:12:19;;;;;;;5.25;3.28;;;;;;;;;;6210983;23;20354;-62
2022/05/10 16:14:45;;;;;;;5.18;3.47;;;;;;;;;;6212413;23;20004;-62
2022/05/10 16:17:11;;;;;;;8.65;3.65;;;;;;;;;;6211961;23;20011;-63
2022/05/10 16:32:11;;;;;;;7.35;4.70;;;;;;;;;;6217225;23;20027;-65
2022/05/10 17:05:21;;;;;;;7.70;4.20;;;;;;;;;;6094377;23;20414;-65
2022/05/10 17:35:11;;;;;;;8.68;4.20;;;;;;;;;;6211985;23;20450;-65
2022/05/10 17:37:37;;;;;;;4.93;3.42;;;;;;;;;;6209193;23;20011;-65
2022/05/10 17:40:06;;;;;;;8.13;3.67;;;;;;;;;;6211024;23;20031;-66
2022/05/10 17:42:32;;;;;;;4.95;3.17;;;;;;;;;;6209742;23;20020;-66
2022/05/10 17:44:58;;;;;;;8.20;3.67;;;;;;;;;;6212751;23;20000;-65
2022/05/10 17:47:25;;;;;;;4.05;3.42;;;;;;;;;;6210125;23;20015;-66
2022/05/10 17:49:51;;;;;;;9.63;3.83;;;;;;;;;;6211529;23;20005;-65
2022/05/10 17:52:17;;;;;;;4.38;3.30;;;;;;;;;;6210981;23;20005;-66
2022/05/10 17:54:43;;;;;;;7.05;3.63;;;;;;;;;;6211310;23;20000;-66
2022/05/10 17:57:10;;;;;;;4.57;3.30;;;;;;;;;;6211872;23;20028;-66
2022/05/10 17:59:36;;;;;;;5.82;3.80;;;;;;;;;;6211869;23;20086;-66
2022/05/10 18:02:02;;;;;;;4.20;2.97;;;;;;;;;;6211777;23;20039;-65
2022/05/10 18:04:30;;;;;;;5.22;3.20;;;;;;;;;;6210068;23;20015;-66
2022/05/10 18:06:56;;;;;;;6.47;3.00;;;;;;;;;;6212823;23;20321;-65
2022/05/10 18:40:19;;;;;;;7.55;3.60;;;;;;;;;;6212676;23;20053;-66
2022/05/10 18:42:45;;;;;;;9.15;4.10;;;;;;;;;;6211273;23;20032;-66
2022/05/10 18:45:12;;;;;;;5.65;3.55;;;;;;;;;;6210011;23;20004;-65
2022/05/10 18:47:38;;;;;;;8.85;4.00;;;;;;;;;;6211762;23;20008;-65
2022/05/10 18:50:05;;;;;;;7.07;3.92;;;;;;;;;;6209701;23;20005;-65
2022/05/10 18:52:31;;;;;;;8.30;4.38;;;;;;;;;;6207916;23;20034;-66
2022/05/10 18:54:57;;;;;;;11.63;4.35;;;;;;;;;;6209210;23;20008;-65
2022/05/10 18:57:23;;;;;;;8.43;4.63;;;;;;;;;;6209672;23;20008;-66
2022/05/10 18:59:50;;;;;;;11.18;4.75;;;;;;;;;;6209469;23;20107;-65
2022/05/10 19:02:16;;;;;;;8.43;4.97;;;;;;;;;;6209761;23;20020;-65
2022/05/10 19:04:42;;;;;;;7.10;4.85;;;;;;;;;;6208604;23;20051;-66
2022/05/10 19:07:08;;;;;;;7.03;4.45;;;;;;;;;;6209728;23;20503;-66
2022/05/10 19:09:34;;;;;;;12.50;4.75;;;;;;;;;;6212181;23;20001;-66
2022/05/10 19:12:01;;;;;;;5.20;4.05;;;;;;;;;;6213095;23;20038;-66
2022/05/10 19:14:29;;;;;;;5.03;3.90;;;;;;;;;;6213019;23;20066;-66
2022/05/10 19:16:59;;;;;;;5.60;4.20;;;;;;;;;;6211565;23;20474;-66
2022/05/10 19:19:25;;;;;;;6.25;4.10;;;;;;;;;;6209936;23;20005;-67
2022/05/10 19:21:51;;;;;;;4.30;3.80;;;;;;;;;;6210113;23;20111;-69
2022/05/10 19:24:18;;;;;;;5.30;3.63;;;;;;;;;;6211130;23;20012;-67
2022/05/10 19:26:44;;;;;;;5.85;3.90;;;;;;;;;;6210333;23;20087;-66
2022/05/10 19:29:11;;;;;;;9.60;3.80;;;;;;;;;;6212126;23;20075;-66
2022/05/10 19:31:38;;;;;;;6.90;4.55;;;;;;;;;;6212568;23;20497;-66
2022/05/10 19:34:08;;;;;;;6.10;3.75;;;;;;;;;;6210298;23;20031;-67
2022/05/10 19:36:35;;;;;;;7.30;4.07;;;;;;;;;;6213170;23;20012;-67
2022/05/10 19:39:01;;;;;;;8.43;3.58;;;;;;;;;;6211489;23;20084;-66
2022/05/10 19:41:34;;;;;;;5.65;3.88;;;;;;;;;;6211950;23;20013;-66
2022/05/10 19:44:00;;;;;;;6.13;4.10;;;;;;;;;;6212540;23;20001;-67
2022/05/10 19:46:26;;;;;;;5.70;4.00;;;;;;;;;;6210497;23;20008;-66
2022/05/10 19:48:54;;;;;;;9.63;4.20;;;;;;;;;;6209221;23;20027;-67
2022/05/10 19:51:20;;;;;;;6.10;3.97;;;;;;;;;;6211821;23;20005;-67
2022/05/10 19:53:46;;;;;;;6.95;4.03;;;;;;;;;;6208997;23;20016;-66
2022/05/10 19:56:12;;;;;;;6.82;3.33;;;;;;;;;;6211659;23;20001;-66
2022/05/10 19:58:38;;;;;;;7.13;3.50;;;;;;;;;;6208193;23;20066;-67
2022/05/10 20:01:07;;;;;;;9.27;4.03;;;;;;;;;;6206496;23;20096;-67
2022/05/10 20:06:18;;;;;;;7.70;3.92;;;;;;;;;;6210319;23;20410;-66
2022/05/10 20:08:45;;;;;;;7.80;4.13;;;;;;;;;;6208364;23;20004;-66
2022/05/10 20:11:11;;;;;;;6.25;4.05;;;;;;;;;;6210640;23;20393;-66
2022/05/10 20:13:38;;;;;;;6.35;3.97;;;;;;;;;;6210756;23;20009;-67
2022/05/10 20:16:05;;;;;;;5.30;3.45;;;;;;;;;;6211434;23;20286;-66
2022/05/10 20:18:31;;;;;;;6.30;4.47;;;;;;;;;;6210210;23;20015;-67
2022/05/10 20:20:59;;;;;;;6.18;3.97;;;;;;;;;;6211159;23;20102;-67
2022/05/10 20:23:26;;;;;;;6.53;4.25;;;;;;;;;;6212071;23;20072;-66
2022/05/10 20:25:53;;;;;;;6.47;4.50;;;;;;;;;;6211170;23;20001;-67
2022/05/10 20:28:19;;;;;;;6.95;4.28;;;;;;;;;;6211023;23;20005;-67
2022/05/10 20:30:47;;;;;;;5.75;4.00;;;;;;;;;;6211068;23;20023;-67
2022/05/10 20:33:13;;;;;;;8.63;4.28;;;;;;;;;;6212377;23;19996;-67
2022/05/10 20:35:42;;;;;;;5.82;4.03;;;;;;;;;;6209913;23;20158;-67
2022/05/10 20:38:08;;;;;;;6.93;4.28;;;;;;;;;;6209534;23;20001;-67
2022/05/10 20:40:34;;;;;;;7.57;4.38;;;;;;;;;;6210453;23;20087;-67
2022/05/10 20:43:01;;;;;;;16.85;4.78;;;;;;;;;;6212852;23;20088;-66
2022/05/10 20:45:36;;;;;;;7.20;4.25;;;;;;;;;;6210268;23;20015;-67
2022/05/10 20:48:02;;;;;;;8.35;4.65;;;;;;;;;;6210845;23;20015;-67
2022/05/10 20:50:29;;;;;;;8.63;4.25;;;;;;;;;;6210772;23;20008;-67
2022/05/10 20:52:55;;;;;;;5.47;3.90;;;;;;;;;;6212533;23;20016;-67
2022/05/10 20:55:23;;;;;;;6.80;4.63;;;;;;;;;;6210588;23;20143;-67
2022/05/10 20:57:49;;;;;;;6.68;4.20;;;;;;;;;;6210933;23;20012;-67
2022/05/10 21:00:17;;;;;;;8.73;4.65;;;;;;;;;;6209439;23;20019;-67
2022/05/10 21:02:44;;;;;;;6.22;4.18;;;;;;;;;;6210522;23;20038;-66
2022/05/10 21:05:11;;;;;;;10.73;5.00;;;;;;;;;;6210696;23;20009;-66
2022/05/10 21:10:22;;;;;;;7.43;4.50;;;;;;;;;;6211359;23;20055;-69
2022/05/10 21:12:48;;;;;;;8.35;4.85;;;;;;;;;;6209880;23;20008;-66
2022/05/10 21:15:14;;;;;;;5.95;4.32;;;;;;;;;;6211565;23;20155;-66
2022/05/10 21:17:40;;;;;;;5.25;4.03;;;;;;;;;;6209940;23;20131;-67
2022/05/10 21:20:07;;;;;;;10.63;4.53;;;;;;;;;;6209827;23;20004;-66
2022/05/10 21:22:33;;;;;;;6.45;3.80;;;;;;;;;;6211712;23;20145;-67
2022/05/10 21:25:00;;;;;;;11.68;6.85;;;;;;;;;;6210039;23;20012;-67
2022/05/10 21:27:26;;;;;;;9.75;5.60;;;;;;;;;;6210170;23;20043;-67
2022/05/10 21:32:50;;;;;;;9.23;4.78;;;;;;;;;;6212114;23;20019;-66
2022/05/10 21:35:17;;;;;;;5.38;3.92;;;;;;;;;;6210681;23;20015;-67
2022/05/10 21:37:43;;;;;;;7.80;5.07;;;;;;;;;;6210116;23;20032;-66
2022/05/10 21:40:10;;;;;;;10.18;4.75;;;;;;;;;;6208797;23;20008;-67
2022/05/10 21:42:36;;;;;;;15.00;4.57;;;;;;;;;;6209991;23;20027;-67
2022/05/10 21:45:02;;;;;;;8.95;4.70;;;;;;;;;;6209959;23;20011;-67
2022/05/10 21:47:29;;;;;;;7.85;4.78;;;;;;;;;;6210311;23;20432;-66
2022/05/10 21:49:55;;;;;;;10.32;5.07;;;;;;;;;;6211350;23;20312;-67
2022/05/10 21:52:22;;;;;;;10.45;4.60;;;;;;;;;;6209946;23;20008;-67
2022/05/10 21:54:48;;;;;;;7.70;4.43;;;;;;;;;;6209394;23;20032;-66
2022/05/10 21:57:16;;;;;;;10.88;4.30;;;;;;;;;;6210452;23;20008;-67
2022/05/10 21:59:42;;;;;;;4.50;3.35;;;;;;;;;;6211708;23;20001;-67
2022/05/10 22:02:11;;;;;;;6.47;4.07;;;;;;;;;;6211407;23;20027;-67
2022/05/10 22:04:37;;;;;;;6.28;4.20;;;;;;;;;;6209744;23;20043;-67
2022/05/10 22:07:03;;;;;;;14.50;4.68;;;;;;;;;;6209950;23;20026;-67
2022/05/10 22:09:34;;;;;;;9.18;5.72;;;;;;;;;;6208987;23;20095;-67
2022/05/10 22:12:03;;;;;;;8.70;4.78;;;;;;;;;;6211507;23;20316;-67
2022/05/10 22:14:29;;;;;;;8.98;5.25;;;;;;;;;;6209921;23;20009;-67
2022/05/10 22:16:55;;;;;;;8.70;4.63;;;;;;;;;;6209899;23;20008;-67
2022/05/10 22:19:21;;;;;;;6.97;4.82;;;;;;;;;;6209281;23;19997;-67
2022/05/10 22:21:48;;;;;;;6.80;4.53;;;;;;;;;;6209264;23;20474;-66
2022/05/10 22:56:22;;;;;;;6.03;4.07;;;;;;;;;;6210730;22;20025;-63
2022/05/10 22:58:48;;;;;;;9.73;5.53;;;;;;;;;;6187377;23;20012;-64
2022/05/10 23:01:14;;;;;;;6.22;4.55;;;;;;;;;;6214293;23;20005;-64
2022/05/10 23:03:41;;;;;;;6.95;4.65;;;;;;;;;;6187675;23;20015;-64
2022/05/10 23:06:08;;;;;;;10.35;4.78;;;;;;;;;;6187055;23;20063;-64
2022/05/10 23:08:34;;;;;;;6.40;4.25;;;;;;;;;;6187938;23;20338;-63
2022/05/10 23:11:01;;;;;;;7.45;4.57;;;;;;;;;;6187739;23;20008;-64
2022/05/10 23:13:28;;;;;;;8.27;4.93;;;;;;;;;;6187584;23;20005;-64
2022/05/10 23:15:54;;;;;;;14.23;5.22;;;;;;;;;;6187189;23;20012;-63
2022/05/10 23:18:21;;;;;;;4.63;3.78;;;;;;;;;;6187187;23;20059;-64
2022/05/10 23:20:47;;;;;;;7.10;5.40;;;;;;;;;;6187117;23;20004;-64
2022/05/10 23:23:14;;;;;;;9.75;4.78;;;;;;;;;;6214318;23;20004;-64
2022/05/10 23:25:41;;;;;;;8.20;4.10;;;;;;;;;;6187372;23;20049;-64
2022/05/10 23:28:08;;;;;;;10.15;4.15;;;;;;;;;;6187477;23;20004;-64
2022/05/10 23:30:35;;;;;;;7.82;4.78;;;;;;;;;;6187555;23;20005;-63
2022/05/10 23:33:03;;;;;;;5.57;3.97;;;;;;;;;;6188433;23;20036;-64
2022/05/10 23:35:30;;;;;;;9.60;4.45;;;;;;;;;;6188463;23;20512;-64
2022/05/10 23:37:56;;;;;;;7.10;4.53;;;;;;;;;;6188740;23;20015;-64
2022/05/10 23:40:22;;;;;;;11.38;4.60;;;;;;;;;;6214236;23;20012;-64
2022/05/10 23:45:34;;;;;;;10.98;4.72;;;;;;;;;;6214401;23;20019;-64
2022/05/10 23:48:01;;;;;;;6.85;4.85;;;;;;;;;;6186693;23;20009;-65
2022/05/10 23:50:27;;;;;;;7.30;4.93;;;;;;;;;;6186955;23;20319;-65
2022/05/10 23:52:53;;;;;;;10.50;4.75;;;;;;;;;;6187754;23;20008;-64
2022/05/10 23:55:20;;;;;;;10.35;5.10;;;;;;;;;;6187091;23;20443;-64
2022/05/10 23:57:46;;;;;;;8.35;5.30;;;;;;;;;;6213113;23;20441;-64
